Latest Weather Observations for Temora

IDN60801

Issued at 6:12 pm EST Sunday 15 September 2019 (issued every 10 minutes, with the page automatically refreshed every 10 minutes)

About weather observations | Map of weather stations | Latest weather observations for NSW | Other Formats
Station Details ID: 073151 Name: TEMORA AIRPORT Lat: -34.43 Lon: 147.51 Height: 280.5 m
Data from the previous 72 hours. | See also: Recent months at Temora
Date/Time
EST
Temp
°C
App
Temp
°C
Dew
Point
°C
Rel
Hum
%
Delta-T
°C
Wind Press
QNH
hPa
Press
MSL
hPa
Rain since
9am
mm
Dir  Spd
km/h
Gust
km/h
Spd
kts
Gust
kts
15/06:00pm 19.7 16.8 1.7 30 8.3 N 6 7 3 4 1019.9 1020.0 0.0
15/05:30pm 22.2 19.9 0.1 23 10.1 SSW 2 6 1 3 1019.8 1019.9 0.0
15/05:00pm 23.7 21.2 -3.6 16 11.7 CALM 0 0 0 0 1019.7 1019.8 0.0
15/04:30pm 24.4 22.1 -2.2 17 11.9 CALM 0 0 0 0 1019.4 1019.5 0.0
15/04:00pm 24.4 21.6 -3.0 16 12.0 WNW 2 7 1 4 1019.6 1019.7 0.0
15/03:30pm 25.1 21.5 -3.3 15 12.5 N 6 7 3 4 1019.7 1019.8 0.0
15/03:00pm 24.4 19.8 -3.9 15 12.2 W 11 17 6 9 1020.3 1020.4 0.0
15/02:30pm 24.0 18.6 -4.2 15 12.1 W 15 22 8 12 1020.7 1020.8 0.0
15/02:00pm 25.0 20.0 -4.3 14 12.6 WSW 13 22 7 12 1021.1 1021.2 0.0
15/01:30pm 24.1 18.7 -4.1 15 12.1 WNW 15 24 8 13 1021.8 1021.9 0.0
15/01:00pm 24.5 20.0 -2.9 16 12.0 WSW 11 17 6 9 1022.3 1022.4 0.0
15/12:30pm 24.1 19.4 -1.7 18 11.6 NNW 13 20 7 11 1022.6 1022.7 0.0
15/12:00pm 23.0 18.3 -1.8 19 11.0 WNW 13 17 7 9 1022.7 1022.8 0.0
15/11:30am 22.2 18.5 0.1 23 10.1 N 9 17 5 9 1023.1 1023.2 0.0
15/11:00am 20.8 17.3 1.1 27 9.0 NE 9 15 5 8 1023.8 1023.9 0.0
15/10:30am 19.7 16.3 2.1 31 8.2 NE 9 13 5 7 1024.1 1024.2 0.0
15/10:00am 18.1 15.2 2.4 35 7.2 NE 7 13 4 7 1024.5 1024.6 0.0
15/09:30am 16.0 12.7 2.4 40 6.2 N 9 13 5 7 1024.8 1024.9 0.0
15/09:00am 13.6 10.5 1.6 44 5.2 NNE 7 9 4 5 1025.0 1025.2 0.0
15/08:30am 11.1 8.5 1.1 50 4.2 NE 4 7 2 4 1025.0 1025.2 0.0
15/08:00am 9.2 6.1 1.1 57 3.3 NE 7 9 4 5 1024.8 1024.9 0.0
15/07:30am 5.2 3.6 2.6 83 1.1 CALM 0 0 0 0 1024.7 1024.8 0.0
15/07:00am 1.8 -1.2 0.6 92 0.5 S 6 6 3 3 1024.4 1024.5 0.0
15/06:30am -0.5 -3.3 -2.9 84 0.8 SE 2 6 1 3 1024.0 1024.1 0.0
15/06:00am 0.4 -2.9 -1.2 89 0.6 S 6 7 3 4 1024.0 1024.1 0.0
15/05:30am -0.2 -3.5 -1.6 90 0.5 S 6 9 3 5 1023.9 1024.0 0.0
15/05:00am -0.6 -3.3 -2.5 87 0.6 S 2 6 1 3 1023.6 1023.7 0.0
15/04:30am -0.3 -3.4 -2.7 84 0.8 S 4 6 2 3 1023.6 1023.7 0.0
15/04:00am -1.0 -3.8 -3.5 83 0.8 S 2 6 1 3 1023.6 1023.7 0.0
15/03:30am 0.7 -2.9 -1.8 83 0.9 S 7 9 4 5 1023.5 1023.6 0.0
15/03:00am 0.5 -3.1 -2.2 82 1.0 S 7 11 4 6 1023.6 1023.7 0.0
15/02:30am 0.9 -2.1 -2.2 80 1.1 S 4 6 2 3 1023.7 1023.8 0.0
15/02:00am 2.3 -1.2 -1.1 78 1.2 S 7 9 4 5 1024.1 1024.2 0.0
15/01:30am 1.8 -0.5 -2.1 75 1.4 CALM 0 0 0 0 1024.3 1024.4 0.0
15/01:00am 1.5 -0.8 -2.6 74 1.4 CALM 0 0 0 0 1024.2 1024.3 0.0
15/12:30am 3.0 0.8 -1.5 72 1.6 CALM 0 0 0 0 1024.4 1024.5 0.0
15/12:00am 3.8 0.8 -1.5 68 1.9 SE 4 6 2 3 1024.6 1024.7 0.0
 
Date/Time
EST
Temp
°C
App
Temp
°C
Dew
Point
°C
Rel
Hum
%
Delta-T
°C
Wind Press
QNH
hPa
Press
MSL
hPa
Rain since
9am
mm
Dir  Spd
km/h
Gust
km/h
Spd
kts
Gust
kts
14/11:30pm 4.7 1.3 -0.9 67 2.1 SSW 7 9 4 5 1024.7 1024.8 0.0
14/11:00pm 4.4 0.9 -1.4 66 2.1 SSW 7 9 4 5 1024.8 1024.9 0.0
14/10:30pm 3.4 -1.2 -1.3 71 1.7 SW 13 15 7 8 1025.1 1025.3 0.0
14/10:00pm 4.1 0.5 -1.9 65 2.2 SSW 7 9 4 5 1025.3 1025.5 0.0
14/09:30pm 6.6 4.3 -2.0 54 3.2 CALM 0 0 0 0 1025.1 1025.3 0.0
14/09:00pm 9.1 6.6 -0.8 50 3.9 SE 2 7 1 4 1025.2 1025.4 0.0
14/08:30pm 9.8 7.3 -1.3 46 4.4 WNW 2 6 1 3 1025.0 1025.2 0.0
14/08:00pm 7.9 4.3 -3.9 43 4.3 W 6 7 3 4 1024.9 1025.1 0.0
14/07:30pm 11.4 8.4 -1.7 40 5.2 SW 4 6 2 3 1024.6 1024.7 0.0
14/07:00pm 13.2 9.6 -4.0 30 6.6 WSW 6 9 3 5 1024.3 1024.4 0.0
14/06:30pm 15.3 12.1 -3.1 28 7.4 SW 4 7 2 4 1024.1 1024.2 0.0
14/06:00pm 16.9 12.3 -3.8 24 8.3 WSW 11 15 6 8 1023.7 1023.8 0.0
14/05:30pm 19.4 13.3 -4.1 20 9.6 WSW 19 24 10 13 1023.5 1023.6 0.0
14/05:00pm 20.7 14.5 -4.4 18 10.3 WSW 19 26 10 14 1023.5 1023.6 0.0
14/04:30pm 21.5 15.3 -5.3 16 11.0 WSW 19 28 10 15 1023.2 1023.3 0.0
14/04:00pm 21.8 15.4 -5.1 16 11.0 SW 20 30 11 16 1023.3 1023.4 0.0
14/03:30pm 21.8 15.4 -5.1 16 11.1 WSW 20 30 11 16 1023.5 1023.6 0.0
14/03:00pm 21.8 15.6 -3.5 18 10.7 WSW 20 30 11 16 1023.6 1023.7 0.0
14/02:30pm 21.4 15.8 -2.5 20 10.3 WSW 17 28 9 15 1023.6 1023.7 0.0
14/02:00pm 21.8 15.8 -2.8 19 10.5 WSW 19 28 10 15 1024.0 1024.1 0.0
14/01:30pm 21.3 15.7 -3.2 19 10.4 WSW 17 28 9 15 1024.1 1024.2 0.0
14/01:00pm 20.5 14.5 -1.9 22 9.7 WSW 20 30 11 16 1024.4 1024.5 0.0
14/12:30pm 19.6 13.7 -0.9 25 9.0 SW 20 26 11 14 1024.8 1024.9 0.0
14/12:00pm 19.0 14.0 1.1 30 8.1 WSW 17 30 9 16 1025.3 1025.5 0.0
14/11:30am 18.0 13.3 0.6 31 7.8 WSW 15 26 8 14 1025.6 1025.8 0.0
14/11:00am 18.2 14.0 1.7 33 7.5 WSW 13 20 7 11 1025.9 1026.1 0.0
14/10:30am 17.2 12.9 1.2 34 7.2 WSW 13 20 7 11 1026.2 1026.3 0.0
14/10:00am 16.0 12.2 4.1 45 5.6 SW 13 19 7 10 1026.2 1026.3 0.0
14/09:30am 14.6 10.8 4.0 49 4.9 SSW 13 19 7 10 1026.4 1026.5 0.0
14/09:00am 13.0 9.8 4.9 58 3.8 SSW 11 17 6 9 1026.6 1026.7 0.0
14/08:30am 11.7 9.3 5.1 64 3.1 SW 7 11 4 6 1026.3 1026.4 0.0
14/08:00am 9.8 7.3 3.8 66 2.7 NW 6 6 3 3 1026.1 1026.2 0.0
14/07:30am 7.6 5.0 3.3 74 1.9 NNE 6 7 3 4 1025.7 1025.9 0.0
14/07:00am 5.7 3.1 3.2 84 1.0 NE 6 7 3 4 1025.3 1025.5 0.0
14/06:30am 4.8 2.0 1.8 81 1.2 NNE 6 7 3 4 1024.9 1025.1 0.0
14/06:00am 5.8 2.8 2.1 77 1.5 SSW 7 9 4 5 1024.7 1024.8 0.0
14/05:30am 5.3 2.2 1.6 77 1.5 WSW 7 9 4 5 1024.4 1024.5 0.0
14/05:00am 7.0 4.1 1.3 67 2.3 SW 6 7 3 4 1024.0 1024.1 0.0
14/04:30am 7.1 3.6 1.4 67 2.3 SW 9 15 5 8 1023.8 1023.9 0.0
14/04:00am 7.6 4.1 1.5 65 2.5 SW 9 13 5 7 1023.6 1023.7 0.0
14/03:30am 6.8 2.9 0.9 66 2.4 WSW 11 15 6 8 1023.7 1023.8 0.0
14/03:00am 3.1 -0.7 -0.5 77 1.3 SW 9 11 5 6 1023.8 1023.9 0.0
14/02:30am 4.4 1.1 0.2 74 1.6 SSW 7 9 4 5 1024.0 1024.1 0.0
14/02:00am 4.5 1.3 -0.5 70 1.9 SW 6 7 3 4 1024.1 1024.2 0.0
14/01:30am 5.8 2.7 0.4 68 2.1 SSW 6 7 3 4 1024.1 1024.2 0.0
14/01:00am 5.5 2.2 0.3 69 2.0 SW 7 9 4 5 1024.3 1024.4 0.0
14/12:30am 6.4 3.3 0.3 65 2.4 SSW 6 7 3 4 1024.4 1024.5 0.0
14/12:00am 6.6 3.5 0.3 64 2.5 S 6 7 3 4 1024.5 1024.6 0.0
 
Date/Time
EST
Temp
°C
App
Temp
°C
Dew
Point
°C
Rel
Hum
%
Delta-T
°C
Wind Press
QNH
hPa
Press
MSL
hPa
Rain since
9am
mm
Dir  Spd
km/h
Gust
km/h
Spd
kts
Gust
kts
13/11:30pm 6.4 3.7 0.5 66 2.4 SSW 4 6 2 3 1024.5 1024.6 0.0
13/11:00pm 6.2 4.1 -0.7 61 2.6 CALM 0 6 0 3 1024.6 1024.7 0.0
13/10:30pm 9.5 6.1 -0.4 50 4.0 SSW 7 7 4 4 1024.8 1024.9 0.0
13/10:00pm 11.3 7.8 -1.1 42 5.0 WSW 7 9 4 5 1024.7 1024.8 0.0
13/09:30pm 11.6 7.4 -0.9 42 5.1 SW 11 13 6 7 1024.7 1024.8 0.0
13/09:00pm 11.4 7.6 -0.7 43 4.9 WSW 9 13 5 7 1024.6 1024.7 0.0
13/08:30pm 9.6 6.6 1.0 55 3.6 SW 6 9 3 5 1024.5 1024.6 0.0
13/08:00pm 11.0 9.2 1.0 50 4.2 CALM 0 0 0 0 1024.4 1024.5 0.0
13/07:30pm 12.5 9.5 0.9 45 5.0 WSW 6 7 3 4 1024.2 1024.3 0.0
13/07:00pm 13.9 10.7 -0.2 38 6.0 SW 6 7 3 4 1023.6 1023.7 0.0
13/06:30pm 15.6 12.3 -0.2 34 6.8 SSW 7 11 4 6 1023.3 1023.4 0.0
13/06:00pm 17.5 12.7 0.2 31 7.6 SSW 15 20 8 11 1023.4 1023.5 0.0
13/05:30pm 19.2 14.0 0.3 28 8.5 SW 17 24 9 13 1023.3 1023.4 0.0
13/05:00pm 20.1 13.8 -4.2 19 10.0 SW 20 30 11 16 1023.1 1023.2 0.0
13/04:30pm 21.0 15.0 -1.5 22 9.9 WSW 20 28 11 15 1022.8 1022.9 0.0
13/04:00pm 21.6 15.0 -3.7 18 10.7 WSW 22 35 12 19 1022.7 1022.8 0.0
13/03:30pm 21.8 15.3 -2.8 19 10.6 WSW 22 32 12 17 1022.4 1022.5 0.0
13/03:00pm 22.3 16.2 -2.4 19 10.8 WSW 20 28 11 15 1022.3 1022.4 0.0
13/02:30pm 21.8 16.3 -2.1 20 10.4 WSW 17 24 9 13 1022.3 1022.4 0.0
13/02:00pm 21.6 15.9 -0.4 23 9.9 WSW 19 24 10 13 1022.8 1022.9 0.0
13/01:30pm 21.3 15.4 -2.5 20 10.3 WSW 19 28 10 15 1023.2 1023.3 0.0
13/01:00pm 21.8 15.9 -2.1 20 10.4 WNW 19 28 10 15 1023.4 1023.5 0.0
13/12:30pm 21.3 15.4 -0.6 23 9.8 W 20 28 11 15 1023.7 1023.8 0.0
13/12:00pm 20.6 15.9 -1.8 22 9.7 WNW 13 20 7 11 1023.9 1024.0 0.0
13/11:30am 20.1 17.1 4.2 35 7.8 WNW 9 17 5 9 1024.2 1024.3 0.0
13/11:00am 18.0 14.9 3.5 38 6.9 SW 9 13 5 7 1024.5 1024.6 0.0
13/10:30am 17.1 14.6 3.8 41 6.3 S 6 13 3 7 1024.7 1024.8 0.0
13/10:00am 16.4 14.1 4.8 46 5.6 ENE 6 9 3 5 1024.7 1024.8 0.0
13/09:30am 15.4 13.4 6.2 54 4.5 NNE 6 9 3 5 1024.9 1025.1 0.0
13/09:00am 13.7 11.7 7.2 65 3.2 NNE 7 11 4 6 1024.8 1024.9 0.0
13/08:30am 11.5 8.2 6.4 71 2.4 ENE 13 15 7 8 1024.6 1024.7 0.0
13/08:00am 10.4 8.2 6.2 75 2.0 SSE 7 9 4 5 1024.7 1024.8 0.0
13/07:30am 7.5 5.7 7.1 97 0.2 SSW 6 13 3 7 1024.4 1024.5 0.0
13/07:00am 3.7 0.5 3.3 97 0.2 SSW 9 11 5 6 1024.1 1024.2 0.0
13/06:30am 2.1 -0.8 1.5 96 0.2 S 6 7 3 4 1023.6 1023.7 0.0
13/06:00am 2.2 -0.6 1.8 97 0.2 SW 6 9 3 5 1024.0 1024.1 0.0
13/05:30am 1.3 -0.8 -0.5 88 0.7 CALM 0 6 0 3 1024.0 1024.1 0.0
13/05:00am 4.9 1.8 3.6 91 0.6 S 9 11 5 6 1023.7 1023.8 0.0
13/04:30am 5.5 2.3 3.3 86 0.9 S 9 11 5 6 1023.5 1023.6 0.0
13/04:00am 6.1 3.0 3.6 84 1.1 SSE 9 11 5 6 1023.2 1023.3 0.0
13/03:30am 6.5 4.0 4.5 87 0.9 S 7 9 4 5 1023.2 1023.3 0.0
13/03:00am 5.5 2.7 3.0 84 1.0 SSW 7 9 4 5 1023.2 1023.3 0.0
13/02:30am 6.8 3.6 3.2 78 1.5 SW 9 11 5 6 1023.3 1023.4 0.0
13/02:00am 6.6 3.8 2.3 74 1.8 W 6 7 3 4 1023.1 1023.2 0.0
13/01:30am 9.2 5.5 4.6 73 2.1 SSW 13 19 7 10 1022.8 1022.9 0.0
13/01:00am 9.5 6.5 4.1 69 2.4 S 9 11 5 6 1022.5 1022.6 0.0
13/12:30am 10.5 7.2 4.6 67 2.7 SSW 11 17 6 9 1022.3 1022.4 0.0
13/12:00am 10.7 7.4 4.6 66 2.8 SSW 11 15 6 8 1022.3 1022.4 0.0
 
Date/Time
EST
Temp
°C
App
Temp
°C
Dew
Point
°C
Rel
Hum
%
Delta-T
°C
Wind Press
QNH
hPa
Press
MSL
hPa
Rain since
9am
mm
Dir  Spd
km/h
Gust
km/h
Spd
kts
Gust
kts
12/11:30pm 10.0 6.5 3.7 65 2.8 SW 11 15 6 8 1022.1 1022.3 0.0
12/11:00pm 12.6 8.9 4.3 57 3.8 SSW 13 20 7 11 1022.0 1022.2 0.0
12/10:30pm 13.4 9.3 4.6 55 4.1 SSW 15 20 8 11 1021.8 1021.9 0.0
12/10:00pm 14.4 9.6 4.4 51 4.7 SSW 19 28 10 15 1021.5 1021.6 0.0
12/09:30pm 14.7 10.6 4.4 50 4.8 SW 15 20 8 11 1021.4 1021.5 0.0
12/09:00pm 15.3 10.8 4.1 47 5.3 SSW 17 24 9 13 1021.0 1021.1 0.0
12/08:30pm 16.5 10.4 2.9 40 6.3 SSW 24 33 13 18 1020.7 1020.8 0.0
12/08:00pm 17.5 10.7 1.1 33 7.4 SW 26 37 14 20 1020.5 1020.6 0.0
12/07:30pm 17.1 11.2 -2.5 26 8.1 WSW 19 28 10 15 1020.2 1020.3 0.0
12/07:00pm 14.3 9.8 -3.5 29 7.0 NW 11 13 6 7 1019.4 1019.5 0.0
12/06:30pm 14.5 10.4 -3.3 29 7.1 WNW 9 13 5 7 1019.0 1019.1 0.0

Other formats

Comma delimited format used in spreadsheet applications
http://www.bom.gov.au/fwo/IDN60801/IDN60801.95722.axf

JavaScript Object Notation format (JSON) in row-major order
http://www.bom.gov.au/fwo/IDN60801/IDN60801.95722.json

Data quality

Most of these data are generated automatically and are frequently updated. Quality checks on data are not normally performed. It is possible for incorrect values to appear. Refer to information at About Latest Weather Observations and please check the disclaimer before using these data.